Time;durP1;ratioP1;P1;durP2;ratioP2;P2;SDS_P1;SDS_P2;PMS_P1;PMS_P2;Temp;Humidity;BMP_temperature;BMP_pressure;BME280_temperature;BME280_humidity;BME280_pressure;Samples;Min_cycle;Max_cycle;Signal;HPM_P1;HPM_P2
2021/09/26 00:01:46;;;;;;;12.67;8.10;;;19.60;84.30;;;;;;5026643;28;20919;-75
2021/09/26 00:04:12;;;;;;;11.50;8.60;;;19.60;84.60;;;;;;5029948;28;20655;-73
2021/09/26 00:06:38;;;;;;;10.90;8.33;;;19.80;84.30;;;;;;5031166;28;20239;-73
2021/09/26 00:09:04;;;;;;;11.13;8.10;;;19.90;83.80;;;;;;5032050;28;20190;-74
2021/09/26 00:11:30;;;;;;;13.07;8.23;;;20.00;83.60;;;;;;5031747;28;20700;-74
2021/09/26 00:13:56;;;;;;;13.67;8.53;;;20.10;83.40;;;;;;5031706;28;20440;-74
2021/09/26 00:16:22;;;;;;;11.80;8.23;;;20.10;83.10;;;;;;5031775;28;20915;-74
2021/09/26 00:18:49;;;;;;;15.53;8.20;;;20.20;83.10;;;;;;5026580;28;20237;-73
2021/09/26 00:21:15;;;;;;;14.20;8.20;;;20.30;82.80;;;;;;5031970;28;20432;-74
2021/09/26 00:23:41;;;;;;;11.57;7.87;;;20.30;82.80;;;;;;5031919;28;20929;-73
2021/09/26 00:26:07;;;;;;;12.20;7.93;;;20.40;83.00;;;;;;5032196;28;20435;-72
2021/09/26 00:28:35;;;;;;;13.97;7.60;;;20.40;82.80;;;;;;5031671;28;20539;-73
2021/09/26 00:31:03;;;;;;;12.03;8.33;;;20.50;82.50;;;;;;5031879;28;20572;-73
2021/09/26 00:33:29;;;;;;;10.50;7.57;;;20.50;82.70;;;;;;5031954;28;20512;-73
2021/09/26 00:35:55;;;;;;;12.13;8.13;;;20.40;83.00;;;;;;5026929;28;20439;-73
2021/09/26 00:38:21;;;;;;;13.80;8.67;;;20.40;83.00;;;;;;5031668;28;20440;-75
2021/09/26 00:40:48;;;;;;;12.77;8.37;;;20.50;82.10;;;;;;5027501;28;20466;-74
2021/09/26 00:43:14;;;;;;;23.47;9.17;;;20.50;81.90;;;;;;5028305;28;20536;-74
2021/09/26 00:45:40;;;;;;;11.50;8.83;;;20.40;82.20;;;;;;5026889;28;20967;-74
2021/09/26 00:48:06;;;;;;;15.10;9.60;;;20.30;82.50;;;;;;5027136;28;20225;-75
2021/09/26 00:50:32;;;;;;;14.70;9.40;;;20.20;82.70;;;;;;5029947;28;20191;-74
2021/09/26 00:52:58;;;;;;;12.63;9.50;;;20.20;83.10;;;;;;5031235;28;20466;-74
2021/09/26 00:55:24;;;;;;;13.60;8.90;;;20.10;83.30;;;;;;5022928;28;20453;-75
2021/09/26 00:57:50;;;;;;;13.60;8.37;;;20.00;83.60;;;;;;5030573;28;20613;-74
2021/09/26 01:00:19;;;;;;;12.60;7.97;;;20.00;84.00;;;;;;5030822;28;20201;-76
2021/09/26 01:02:44;;;;;;;13.10;8.23;;;19.90;84.60;;;;;;5031336;28;20851;-76
2021/09/26 01:05:13;;;;;;;11.10;6.93;;;20.00;84.60;;;;;;5030979;28;20452;-75
2021/09/26 01:07:42;;;;;;;14.87;7.90;;;20.00;84.40;;;;;;5030221;28;20228;-74
2021/09/26 01:10:20;;;;;;;12.53;8.60;;;20.00;84.00;;;;;;5028250;28;20448;-75
2021/09/26 01:12:47;;;;;;;13.70;8.83;;;19.90;84.30;;;;;;5030899;28;20555;-75
2021/09/26 01:15:34;;;;;;;14.60;9.13;;;20.00;84.40;;;;;;5030611;28;20496;-73
2021/09/26 01:18:16;;;;;;;18.80;9.37;;;20.00;84.30;;;;;;5030105;28;20443;-75
2021/09/26 01:21:10;;;;;;;15.33;9.57;;;20.00;84.10;;;;;;5030758;28;20431;-73
2021/09/26 01:24:09;;;;;;;13.70;9.07;;;20.00;84.40;;;;;;5030370;28;20943;-74
2021/09/26 01:27:13;;;;;;;12.53;8.47;;;20.00;84.30;;;;;;5021322;28;21049;-73
2021/09/26 01:29:57;;;;;;;16.70;8.60;;;20.00;84.60;;;;;;5021430;28;20947;-74
2021/09/26 01:32:24;;;;;;;12.40;8.07;;;19.90;84.60;;;;;;5035250;28;20412;-73
2021/09/26 01:34:53;;;;;;;14.23;8.00;;;19.90;84.90;;;;;;5045973;28;20500;-74
2021/09/26 01:37:34;;;;;;;10.90;7.73;;;19.90;84.90;;;;;;5029787;28;20448;-73
2021/09/26 01:40:51;;;;;;;13.73;7.93;;;19.90;84.90;;;;;;5030233;28;20789;-75
2021/09/26 01:43:20;;;;;;;10.47;7.57;;;19.90;85.20;;;;;;4986926;28;20456;-74
2021/09/26 01:45:50;;;;;;;13.53;8.00;;;19.80;85.50;;;;;;4982220;28;20424;-74
2021/09/26 01:48:21;;;;;;;10.30;7.47;;;19.80;85.50;;;;;;4987761;28;20846;-73
2021/09/26 01:50:55;;;;;;;12.60;8.10;;;19.70;85.90;;;;;;4982526;28;20849;-73
2021/09/26 01:53:22;;;;;;;15.50;7.37;;;19.60;86.20;;;;;;4981010;28;20430;-73
2021/09/26 01:55:50;;;;;;;12.73;8.00;;;19.60;86.50;;;;;;4983061;28;20519;-75
2021/09/26 01:58:17;;;;;;;13.47;7.67;;;19.60;86.30;;;;;;4981700;28;20523;-73
2021/09/26 02:00:44;;;;;;;16.80;7.90;;;19.50;86.60;;;;;;4988370;28;20434;-74
2021/09/26 02:03:11;;;;;;;20.67;9.00;;;19.40;86.90;;;;;;4979100;28;20436;-75
2021/09/26 02:05:41;;;;;;;11.13;8.20;;;19.40;87.10;;;;;;4983197;28;20429;-74
2021/09/26 02:08:08;;;;;;;12.40;8.03;;;19.40;87.30;;;;;;4984533;28;20502;-74
2021/09/26 02:10:35;;;;;;;10.80;7.23;;;19.30;87.70;;;;;;4984198;28;20425;-73
2021/09/26 02:13:02;;;;;;;11.83;8.47;;;19.30;87.80;;;;;;4989129;28;20435;-73
2021/09/26 02:15:30;;;;;;;10.90;8.00;;;19.30;88.00;;;;;;5031838;28;20514;-75
2021/09/26 02:17:59;;;;;;;14.23;8.90;;;19.20;88.10;;;;;;5028860;28;20448;-74
2021/09/26 02:20:25;;;;;;;12.20;7.97;;;19.10;88.30;;;;;;5029647;28;20416;-75
2021/09/26 02:22:53;;;;;;;14.60;8.20;;;19.10;88.60;;;;;;5029777;28;20917;-74
2021/09/26 02:25:20;;;;;;;12.83;8.80;;;19.00;88.70;;;;;;5029440;28;20430;-74
2021/09/26 02:27:47;;;;;;;16.10;8.43;;;19.00;89.00;;;;;;5028680;28;20553;-75
2021/09/26 02:30:13;;;;;;;12.10;8.00;;;18.90;89.20;;;;;;5028820;28;21025;-71
2021/09/26 02:32:40;;;;;;;11.30;8.13;;;18.80;89.30;;;;;;5028368;28;20416;-75
2021/09/26 02:35:07;;;;;;;12.43;8.50;;;18.80;89.60;;;;;;5029328;28;20987;-75
2021/09/26 02:37:34;;;;;;;15.50;8.33;;;18.80;89.70;;;;;;5028807;28;21105;-74
2021/09/26 02:40:01;;;;;;;13.63;8.30;;;18.70;90.10;;;;;;5029316;28;20450;-73
2021/09/26 02:43:13;;;;;;;16.67;9.07;;;18.70;90.10;;;;;;5029752;28;20412;-74
2021/09/26 02:45:44;;;;;;;15.33;9.07;;;18.50;90.50;;;;;;5029522;28;20415;-75
2021/09/26 02:48:13;;;;;;;15.63;8.50;;;18.60;90.60;;;;;;5025379;28;20471;-74
2021/09/26 02:50:41;;;;;;;18.17;8.63;;;18.50;90.60;;;;;;5029735;28;20424;-75
2021/09/26 02:53:07;;;;;;;14.37;9.23;;;18.50;90.70;;;;;;5029895;28;20925;-74
2021/09/26 02:55:34;;;;;;;13.80;8.03;;;18.50;90.70;;;;;;5028065;28;20445;-74
2021/09/26 02:58:01;;;;;;;13.93;8.20;;;18.40;91.00;;;;;;5022365;28;20449;-74
2021/09/26 03:00:36;;;;;;;15.77;8.40;;;18.40;90.90;;;;;;5028758;28;20427;-75
2021/09/26 03:03:11;;;;;;;15.90;8.93;;;18.40;91.10;;;;;;5030995;28;20465;-74
2021/09/26 03:05:38;;;;;;;15.07;7.87;;;18.30;91.30;;;;;;5034662;28;20423;-74
2021/09/26 03:08:05;;;;;;;15.93;8.53;;;18.30;91.50;;;;;;5034019;28;20480;-73
2021/09/26 03:10:32;;;;;;;13.40;8.03;;;18.30;91.60;;;;;;5035018;28;20434;-74
2021/09/26 03:12:57;;;;;;;12.53;7.70;;;18.20;91.80;;;;;;5030387;28;20439;-72
2021/09/26 03:15:24;;;;;;;11.90;7.50;;;18.20;92.00;;;;;;5032382;28;20837;-74
2021/09/26 03:17:50;;;;;;;13.33;7.80;;;18.10;92.10;;;;;;5032845;28;20280;-74
2021/09/26 03:20:15;;;;;;;11.70;8.03;;;18.00;92.20;;;;;;5033465;28;21083;-74
2021/09/26 03:22:41;;;;;;;15.43;8.33;;;18.10;92.40;;;;;;5030777;28;20197;-74
2021/09/26 03:25:07;;;;;;;13.27;8.77;;;18.00;92.50;;;;;;5033247;28;20228;-74
2021/09/26 03:27:34;;;;;;;11.97;8.10;;;17.90;92.60;;;;;;5031169;28;20215;-73
2021/09/26 03:29:59;;;;;;;16.40;8.17;;;17.90;92.70;;;;;;5033021;28;20846;-74
2021/09/26 03:32:25;;;;;;;12.73;8.80;;;17.90;92.70;;;;;;5032629;28;20550;-73
2021/09/26 03:34:51;;;;;;;10.83;8.10;;;17.90;92.70;;;;;;5032467;28;20194;-74
2021/09/26 03:37:17;;;;;;;10.87;7.33;;;17.90;92.70;;;;;;5031911;28;20356;-73
2021/09/26 03:39:42;;;;;;;12.83;7.90;;;17.90;92.70;;;;;;5032855;28;20590;-72
2021/09/26 03:42:08;;;;;;;14.20;8.33;;;17.90;92.70;;;;;;5034283;28;20202;-73
2021/09/26 03:44:34;;;;;;;12.90;8.50;;;18.00;92.60;;;;;;5032516;28;20241;-74
2021/09/26 03:47:01;;;;;;;14.27;8.10;;;17.90;92.70;;;;;;5036805;28;20277;-73
2021/09/26 03:49:27;;;;;;;16.40;9.73;;;17.90;92.90;;;;;;5037665;28;20420;-72
2021/09/26 03:51:53;;;;;;;15.40;9.10;;;17.80;93.10;;;;;;5032770;28;20776;-73
2021/09/26 03:54:20;;;;;;;14.20;9.17;;;17.80;93.20;;;;;;5032300;28;20434;-74
2021/09/26 03:56:46;;;;;;;12.70;7.80;;;17.70;93.20;;;;;;5030229;28;20542;-74
2021/09/26 03:59:12;;;;;;;12.93;8.80;;;17.70;93.40;;;;;;5032321;28;21272;-74
2021/09/26 04:01:39;;;;;;;13.20;8.73;;;17.60;93.50;;;;;;5029452;28;20503;-73
2021/09/26 04:04:06;;;;;;;14.50;8.30;;;17.60;93.60;;;;;;5029612;28;21027;-73
2021/09/26 04:06:32;;;;;;;12.50;8.40;;;17.60;93.70;;;;;;5031246;28;20688;-73
2021/09/26 04:08:58;;;;;;;15.50;9.43;;;17.60;93.80;;;;;;5032383;28;20563;-72
2021/09/26 04:11:23;;;;;;;12.20;8.20;;;17.50;93.90;;;;;;5033091;28;20535;-73
2021/09/26 04:13:49;;;;;;;15.17;8.37;;;17.50;94.00;;;;;;5032779;28;20192;-74
2021/09/26 04:16:15;;;;;;;16.10;9.37;;;17.50;94.00;;;;;;5031268;28;20208;-74
2021/09/26 04:18:41;;;;;;;15.60;8.70;;;17.40;94.10;;;;;;5031007;28;20209;-75
2021/09/26 04:21:07;;;;;;;14.67;9.67;;;17.40;94.20;;;;;;5027894;28;20228;-75
2021/09/26 04:23:33;;;;;;;17.07;8.70;;;17.40;94.30;;;;;;5031533;28;20431;-74
2021/09/26 04:25:59;;;;;;;12.20;8.63;;;17.40;94.30;;;;;;5030607;28;20432;-74
2021/09/26 04:28:24;;;;;;;13.70;8.57;;;17.30;94.40;;;;;;5031404;28;20476;-74
2021/09/26 04:30:50;;;;;;;14.20;8.37;;;17.30;94.50;;;;;;5045986;28;20195;-74
2021/09/26 04:33:16;;;;;;;14.27;8.87;;;17.20;94.50;;;;;;5038176;28;20185;-75
2021/09/26 04:35:42;;;;;;;13.93;8.60;;;17.20;94.60;;;;;;5031134;28;20765;-73
2021/09/26 04:38:08;;;;;;;15.97;8.67;;;17.20;94.80;;;;;;5029557;28;20227;-73
2021/09/26 04:40:33;;;;;;;16.40;8.50;;;17.10;95.10;;;;;;5030671;28;20663;-74
2021/09/26 04:42:59;;;;;;;15.90;8.73;;;17.10;95.40;;;;;;5031749;28;20189;-74
2021/09/26 04:45:25;;;;;;;17.03;9.63;;;17.20;95.40;;;;;;5031112;28;20553;-74
2021/09/26 04:47:51;;;;;;;15.33;7.70;;;17.20;95.30;;;;;;5027426;28;20589;-73
2021/09/26 04:50:17;;;;;;;13.80;9.17;;;17.10;95.30;;;;;;5031234;28;20421;-75
2021/09/26 04:52:42;;;;;;;18.50;9.40;;;17.10;95.30;;;;;;5031241;28;20427;-74
2021/09/26 04:55:09;;;;;;;14.93;9.20;;;17.00;95.40;;;;;;5030817;28;20192;-74
2021/09/26 04:57:35;;;;;;;18.63;9.10;;;17.10;95.50;;;;;;5030252;28;20264;-73
2021/09/26 05:00:02;;;;;;;15.63;9.90;;;17.10;95.40;;;;;;5032474;28;20436;-72
2021/09/26 05:02:28;;;;;;;16.70;9.60;;;17.10;95.20;;;;;;5032169;28;20471;-74
2021/09/26 05:04:53;;;;;;;13.97;8.40;;;17.10;95.20;;;;;;5030568;28;20428;-73
2021/09/26 05:07:20;;;;;;;14.07;8.80;;;17.10;95.10;;;;;;5031376;28;20223;-73
2021/09/26 05:09:46;;;;;;;14.00;9.47;;;17.10;95.10;;;;;;5031213;28;20215;-73
2021/09/26 05:12:12;;;;;;;12.83;8.80;;;17.10;95.10;;;;;;5029259;28;20463;-73
2021/09/26 05:14:38;;;;;;;18.17;9.87;;;17.00;95.00;;;;;;5030803;28;20185;-73
2021/09/26 05:17:06;;;;;;;13.60;9.10;;;17.00;95.00;;;;;;5029895;28;20747;-72
2021/09/26 05:19:32;;;;;;;16.13;9.30;;;17.00;95.00;;;;;;5030747;28;20542;-73
2021/09/26 05:21:59;;;;;;;13.53;9.13;;;16.90;95.10;;;;;;5030191;28;20427;-74
2021/09/26 05:24:24;;;;;;;17.70;10.57;;;16.90;95.30;;;;;;5028469;28;20502;-74
2021/09/26 05:26:50;;;;;;;16.33;9.40;;;16.90;95.40;;;;;;5028982;28;20530;-73
2021/09/26 05:29:16;;;;;;;15.37;9.60;;;16.90;95.50;;;;;;5029142;28;20558;-73
2021/09/26 05:31:42;;;;;;;17.97;10.43;;;16.90;95.40;;;;;;5030527;28;20458;-73
2021/09/26 05:34:09;;;;;;;16.03;9.57;;;16.90;95.50;;;;;;5028656;28;20192;-73
2021/09/26 05:36:35;;;;;;;17.87;9.00;;;16.90;95.40;;;;;;5029665;28;20202;-73
2021/09/26 05:39:01;;;;;;;16.30;9.33;;;16.90;95.40;;;;;;5028495;28;20502;-71
2021/09/26 05:41:26;;;;;;;19.50;10.50;;;17.00;95.50;;;;;;5031970;28;20424;-72
2021/09/26 05:43:52;;;;;;;18.97;10.17;;;16.90;95.50;;;;;;5024757;28;20212;-75
2021/09/26 05:46:18;;;;;;;20.10;11.03;;;16.90;95.70;;;;;;5028832;28;20622;-72
2021/09/26 05:48:43;;;;;;;15.27;10.00;;;16.90;95.80;;;;;;5025423;28;20216;-72
2021/09/26 05:51:09;;;;;;;20.03;10.80;;;16.90;95.80;;;;;;5027788;28;20189;-73
2021/09/26 05:53:35;;;;;;;17.20;9.67;;;17.00;95.80;;;;;;5025520;28;20204;-74
2021/09/26 05:56:01;;;;;;;15.13;10.00;;;17.00;95.70;;;;;;5030044;28;20235;-73
2021/09/26 05:58:26;;;;;;;15.60;9.93;;;17.00;95.60;;;;;;5028002;28;20330;-72
2021/09/26 06:00:52;;;;;;;17.97;9.97;;;17.00;95.60;;;;;;5029990;28;20255;-73
2021/09/26 06:03:18;;;;;;;15.90;9.47;;;17.00;95.60;;;;;;5031559;28;20218;-74
2021/09/26 06:05:44;;;;;;;13.83;8.97;;;17.00;95.50;;;;;;5029727;28;20189;-73
2021/09/26 06:08:11;;;;;;;15.37;9.13;;;17.00;95.50;;;;;;5027534;28;20588;-74
2021/09/26 06:10:38;;;;;;;15.00;9.80;;;17.10;95.50;;;;;;5031219;28;20781;-72
2021/09/26 06:13:04;;;;;;;15.80;10.00;;;17.00;95.40;;;;;;5030005;28;20906;-72
2021/09/26 06:15:30;;;;;;;17.97;10.00;;;17.10;95.40;;;;;;5029651;28;20492;-73
2021/09/26 06:17:57;;;;;;;16.17;10.20;;;17.00;95.50;;;;;;5027670;28;20208;-73
2021/09/26 06:20:23;;;;;;;16.97;10.90;;;17.10;95.50;;;;;;5029553;28;20435;-73
2021/09/26 06:22:48;;;;;;;15.50;10.03;;;17.20;95.30;;;;;;5030016;28;20435;-73
2021/09/26 06:25:14;;;;;;;16.73;10.20;;;17.20;95.10;;;;;;5029388;28;20439;-74
2021/09/26 06:27:40;;;;;;;17.80;10.80;;;17.30;94.90;;;;;;5028782;28;20223;-73
2021/09/26 06:30:07;;;;;;;13.93;10.13;;;17.30;94.80;;;;;;5029486;28;20221;-72
2021/09/26 06:32:34;;;;;;;17.50;10.50;;;17.30;94.90;;;;;;5028388;28;20186;-72
2021/09/26 06:35:01;;;;;;;16.00;10.37;;;17.20;94.90;;;;;;5029512;28;20431;-72
2021/09/26 06:37:27;;;;;;;21.27;11.17;;;17.30;94.80;;;;;;5027593;28;20485;-72
2021/09/26 06:39:53;;;;;;;15.67;10.63;;;17.30;94.60;;;;;;5029425;28;20447;-72
2021/09/26 06:42:19;;;;;;;16.23;9.80;;;17.30;94.70;;;;;;5029338;28;20450;-72
2021/09/26 06:44:45;;;;;;;19.47;10.83;;;17.30;94.90;;;;;;5029328;28;20933;-73
2021/09/26 06:47:10;;;;;;;17.30;10.00;;;17.40;94.70;;;;;;5028541;28;20300;-73
2021/09/26 06:49:36;;;;;;;18.10;10.57;;;17.50;94.50;;;;;;5029300;28;20713;-74
2021/09/26 06:52:02;;;;;;;16.97;10.60;;;17.60;94.40;;;;;;5029113;28;20628;-73
2021/09/26 06:54:28;;;;;;;14.50;10.53;;;17.70;94.40;;;;;;5029021;28;20230;-73
2021/09/26 06:56:54;;;;;;;20.40;9.70;;;17.70;94.30;;;;;;5028636;28;20667;-74
2021/09/26 06:59:19;;;;;;;18.10;11.83;;;17.80;94.20;;;;;;5028475;28;20241;-73
2021/09/26 07:01:45;;;;;;;17.63;10.93;;;17.80;94.00;;;;;;5029677;28;20285;-74
2021/09/26 07:04:11;;;;;;;17.97;10.43;;;17.80;94.20;;;;;;5031058;28;20181;-73
2021/09/26 07:06:36;;;;;;;19.50;10.93;;;17.90;94.00;;;;;;5027170;28;20189;-74
2021/09/26 07:09:02;;;;;;;19.13;11.33;;;17.90;93.80;;;;;;5030713;28;20699;-73
2021/09/26 07:11:28;;;;;;;17.87;10.77;;;18.00;93.70;;;;;;5029278;28;20199;-73
2021/09/26 07:13:54;;;;;;;15.87;9.87;;;18.10;93.60;;;;;;5025861;28;20879;-73
2021/09/26 07:16:19;;;;;;;17.70;11.00;;;18.10;93.60;;;;;;5034586;28;20186;-73
2021/09/26 07:18:45;;;;;;;14.83;9.57;;;18.30;93.30;;;;;;5045448;28;20238;-73
2021/09/26 07:21:13;;;;;;;17.07;10.63;;;18.40;92.90;;;;;;5031603;28;20197;-72
2021/09/26 07:23:39;;;;;;;20.30;10.67;;;18.50;92.90;;;;;;5022605;28;20173;-72
2021/09/26 07:26:04;;;;;;;20.23;10.23;;;18.50;92.90;;;;;;5028182;28;21135;-73
2021/09/26 07:28:31;;;;;;;16.37;9.93;;;18.60;92.70;;;;;;5028815;28;20258;-74
2021/09/26 07:30:57;;;;;;;16.70;10.77;;;18.70;92.60;;;;;;5028855;28;20258;-73
2021/09/26 07:33:22;;;;;;;16.43;10.10;;;18.80;92.30;;;;;;5028745;28;20849;-76
2021/09/26 07:35:51;;;;;;;16.23;9.70;;;18.90;92.30;;;;;;5028354;28;20426;-74
2021/09/26 07:38:17;;;;;;;18.37;10.57;;;19.00;92.00;;;;;;5027893;28;20259;-75
2021/09/26 07:40:43;;;;;;;13.67;9.40;;;19.10;91.80;;;;;;5026594;28;20459;-75
2021/09/26 07:43:08;;;;;;;17.70;9.87;;;19.30;91.40;;;;;;5026085;28;20926;-77
2021/09/26 07:45:35;;;;;;;20.00;10.27;;;19.40;91.40;;;;;;5028745;28;20254;-77
2021/09/26 07:48:01;;;;;;;19.90;10.73;;;19.50;91.10;;;;;;5028546;28;20244;-78
2021/09/26 07:50:28;;;;;;;19.43;9.67;;;19.70;90.90;;;;;;5028144;28;20860;-76
2021/09/26 07:52:54;;;;;;;16.40;9.40;;;19.90;90.30;;;;;;5032438;28;20424;-78
2021/09/26 07:55:20;;;;;;;12.30;8.27;;;20.20;88.90;;;;;;5032468;28;20427;-77
2021/09/26 07:57:46;;;;;;;17.63;9.60;;;20.20;88.40;;;;;;5031385;28;20818;-76
2021/09/26 08:00:13;;;;;;;18.33;8.40;;;20.40;88.30;;;;;;5031941;28;20207;-76
2021/09/26 08:02:40;;;;;;;16.43;9.30;;;20.60;87.30;;;;;;5030667;28;20873;-77
2021/09/26 08:05:06;;;;;;;20.03;9.47;;;20.70;86.30;;;;;;5026813;28;20424;-77
2021/09/26 08:07:33;;;;;;;23.10;10.87;;;20.80;86.20;;;;;;5030680;28;20551;-76
2021/09/26 08:09:59;;;;;;;14.23;8.77;;;20.80;86.00;;;;;;5031485;28;20462;-76
2021/09/26 08:12:25;;;;;;;13.40;8.63;;;20.80;85.60;;;;;;5030077;28;20486;-77
2021/09/26 08:14:51;;;;;;;12.70;8.97;;;20.90;85.00;;;;;;5025325;28;20468;-76
2021/09/26 08:17:17;;;;;;;17.50;8.70;;;21.00;85.00;;;;;;5030842;28;20475;-75
2021/09/26 08:19:42;;;;;;;12.20;8.00;;;21.10;84.40;;;;;;5030973;28;20193;-76
2021/09/26 08:22:09;;;;;;;14.03;8.30;;;21.10;84.10;;;;;;5029992;28;20196;-75
2021/09/26 08:24:35;;;;;;;21.30;14.50;;;21.20;84.10;;;;;;5024097;28;20551;-78
2021/09/26 08:27:02;;;;;;;11.57;7.83;;;21.30;84.10;;;;;;5030547;28;20953;-77
2021/09/26 08:29:28;;;;;;;16.93;7.77;;;21.50;83.30;;;;;;5027784;28;20418;-75
2021/09/26 08:31:54;;;;;;;14.00;8.13;;;21.50;83.30;;;;;;5032686;28;20433;-75
2021/09/26 08:34:21;;;;;;;27.13;8.37;;;21.60;82.70;;;;;;5033750;28;20421;-76
2021/09/26 08:36:47;;;;;;;12.60;7.67;;;21.60;83.00;;;;;;5032541;28;20442;-74
2021/09/26 08:39:13;;;;;;;14.20;8.30;;;21.60;82.50;;;;;;5033273;28;20517;-75
2021/09/26 08:41:39;;;;;;;17.60;8.67;;;21.60;83.00;;;;;;5033351;28;20546;-76
2021/09/26 08:44:05;;;;;;;15.23;8.47;;;21.70;82.50;;;;;;5032866;28;20187;-74
2021/09/26 08:46:31;;;;;;;16.70;8.60;;;21.80;82.40;;;;;;5032567;28;20422;-74
2021/09/26 08:48:58;;;;;;;14.60;8.10;;;21.80;82.20;;;;;;5031964;28;20478;-75
2021/09/26 08:51:24;;;;;;;14.50;7.90;;;21.80;82.50;;;;;;5032105;28;20472;-74
2021/09/26 08:53:50;;;;;;;12.60;7.60;;;21.90;81.80;;;;;;5032252;28;20426;-75
2021/09/26 08:56:20;;;;;;;15.70;8.20;;;22.10;81.50;;;;;;5032171;28;20427;-76
2021/09/26 08:58:48;;;;;;;11.20;7.53;;;22.20;80.80;;;;;;5026580;28;20456;-75
2021/09/26 09:01:14;;;;;;;18.80;8.77;;;22.30;80.50;;;;;;5035905;28;20505;-76
2021/09/26 09:03:40;;;;;;;13.87;8.37;;;22.40;80.20;;;;;;5031637;28;20512;-75
2021/09/26 09:06:05;;;;;;;12.53;7.13;;;22.40;80.20;;;;;;5031528;28;20902;-74
2021/09/26 09:08:40;;;;;;;13.03;8.03;;;22.40;80.00;;;;;;5030635;28;20208;-75
2021/09/26 09:11:07;;;;;;;17.13;9.17;;;22.40;79.60;;;;;;5030629;28;20269;-74
2021/09/26 09:13:35;;;;;;;15.50;7.67;;;22.30;79.50;;;;;;5031865;28;20510;-75
2021/09/26 09:16:10;;;;;;;12.80;7.70;;;22.20;79.70;;;;;;5031826;28;20513;-77
2021/09/26 09:18:50;;;;;;;11.17;8.13;;;22.20;79.60;;;;;;5032541;28;20481;-75
2021/09/26 09:21:25;;;;;;;13.77;7.80;;;22.20;79.90;;;;;;5031522;28;20954;-74
2021/09/26 09:23:53;;;;;;;16.07;8.23;;;22.00;80.30;;;;;;5032476;28;20490;-74
2021/09/26 09:26:32;;;;;;;14.30;7.97;;;22.10;80.30;;;;;;5032929;28;20411;-75
2021/09/26 09:28:59;;;;;;;15.07;7.90;;;22.20;79.00;;;;;;5029781;28;21054;-74
2021/09/26 09:31:25;;;;;;;18.90;8.60;;;22.30;78.60;;;;;;5031728;28;20905;-74
2021/09/26 09:33:50;;;;;;;14.33;8.17;;;22.30;75.80;;;;;;5032109;28;20550;-77
2021/09/26 09:36:28;;;;;;;15.10;8.80;;;22.40;75.90;;;;;;5030605;28;20192;-75
2021/09/26 09:38:59;;;;;;;12.77;8.53;;;22.30;74.30;;;;;;5030669;28;20242;-74
2021/09/26 09:41:33;;;;;;;14.87;9.57;;;22.10;73.50;;;;;;5032343;28;20488;-79
2021/09/26 09:43:59;;;;;;;13.53;8.33;;;22.10;73.70;;;;;;5031838;28;20822;-75
2021/09/26 09:46:45;;;;;;;14.90;9.10;;;22.00;75.20;;;;;;5032582;28;20418;-77
2021/09/26 09:49:22;;;;;;;14.53;9.57;;;21.90;76.40;;;;;;5041110;28;20262;-77
2021/09/26 09:52:00;;;;;;;16.33;10.37;;;21.70;77.60;;;;;;5033863;28;20440;-74
2021/09/26 09:54:32;;;;;;;19.63;10.43;;;21.70;78.40;;;;;;5031315;28;20416;-76
2021/09/26 09:57:08;;;;;;;18.87;10.43;;;21.60;78.40;;;;;;5031136;28;20414;-75
2021/09/26 09:59:35;;;;;;;17.90;10.00;;;21.50;78.70;;;;;;5026209;28;20422;-75
2021/09/26 10:02:01;;;;;;;16.10;10.00;;;21.30;79.60;;;;;;5025724;28;20423;-76
2021/09/26 10:04:42;;;;;;;16.10;9.63;;;21.30;80.20;;;;;;5031934;28;20416;-76
2021/09/26 10:07:26;;;;;;;17.90;10.40;;;21.20;81.10;;;;;;5029734;28;20798;-77
2021/09/26 10:09:54;;;;;;;18.93;10.77;;;21.20;81.90;;;;;;5043966;28;20443;-75
2021/09/26 10:12:30;;;;;;;16.67;10.73;;;21.00;83.00;;;;;;5035230;28;20452;-76
2021/09/26 10:14:59;;;;;;;20.10;11.17;;;20.70;84.90;;;;;;5031502;28;20427;-77
2021/09/26 10:17:25;;;;;;;23.60;11.93;;;20.40;86.50;;;;;;5032306;28;20440;-77
2021/09/26 10:19:51;;;;;;;16.33;10.20;;;20.30;87.00;;;;;;5033523;28;20924;-75
2021/09/26 10:22:18;;;;;;;22.07;11.40;;;20.20;87.30;;;;;;5033426;28;20506;-76
2021/09/26 10:24:52;;;;;;;20.70;11.00;;;20.10;87.70;;;;;;5033241;28;20416;-78
2021/09/26 10:27:22;;;;;;;18.37;11.97;;;20.20;88.10;;;;;;5031412;28;20470;-76
2021/09/26 10:30:06;;;;;;;17.83;11.27;;;20.20;87.60;;;;;;5030582;28;20424;-76
2021/09/26 10:32:32;;;;;;;20.00;10.93;;;20.30;87.30;;;;;;5030490;28;20408;-77
2021/09/26 10:34:59;;;;;;;19.20;10.90;;;20.30;87.00;;;;;;5032137;28;20554;-78
2021/09/26 10:37:26;;;;;;;16.87;9.63;;;20.30;86.80;;;;;;5031642;28;20479;-75
2021/09/26 10:39:53;;;;;;;17.10;10.30;;;20.40;86.30;;;;;;5031265;28;20835;-75
2021/09/26 10:42:22;;;;;;;17.50;10.20;;;20.50;86.30;;;;;;5030668;28;20424;-77
2021/09/26 10:44:53;;;;;;;16.97;9.97;;;20.80;85.60;;;;;;5030610;28;20430;-76
2021/09/26 10:47:20;;;;;;;19.17;10.17;;;20.90;84.70;;;;;;5030150;28;20468;-75
2021/09/26 10:49:54;;;;;;;14.20;9.70;;;20.90;84.70;;;;;;5024097;28;20425;-75
2021/09/26 10:52:32;;;;;;;15.70;9.80;;;21.00;85.00;;;;;;5029224;28;20924;-77
2021/09/26 10:55:24;;;;;;;17.73;10.47;;;21.20;84.70;;;;;;5030314;28;20931;-77
2021/09/26 10:58:10;;;;;;;21.20;10.23;;;21.20;84.10;;;;;;5024653;28;20484;-75
2021/09/26 11:01:14;;;;;;;14.80;9.40;;;21.10;84.60;;;;;;5030560;28;20493;-75
2021/09/26 11:03:42;;;;;;;17.90;10.30;;;21.10;85.00;;;;;;5001697;28;20437;-75
2021/09/26 11:06:29;;;;;;;15.33;10.00;;;21.00;85.20;;;;;;5013802;28;21552;-75
2021/09/26 11:08:57;;;;;;;15.97;9.53;;;20.90;85.90;;;;;;5011784;28;20496;-75
2021/09/26 11:11:33;;;;;;;17.27;10.43;;;20.90;85.90;;;;;;5012789;28;20522;-74
2021/09/26 11:13:59;;;;;;;19.30;11.27;;;20.90;86.20;;;;;;5012506;28;20433;-75
2021/09/26 11:16:25;;;;;;;17.60;10.30;;;20.90;85.60;;;;;;5012711;28;20428;-74
2021/09/26 11:18:58;;;;;;;20.30;10.07;;;20.80;85.70;;;;;;5007598;28;20522;-75
2021/09/26 11:21:36;;;;;;;16.40;10.07;;;20.80;86.00;;;;;;5011792;28;20732;-73
2021/09/26 11:24:35;;;;;;;18.00;10.10;;;20.80;86.20;;;;;;5016404;28;20465;-75
2021/09/26 11:27:08;;;;;;;18.20;9.73;;;20.60;86.50;;;;;;5024698;28;20507;-75
2021/09/26 11:29:43;;;;;;;13.73;9.23;;;20.50;87.10;;;;;;5003420;28;20410;-76
2021/09/26 11:32:30;;;;;;;15.43;9.50;;;20.60;87.60;;;;;;5012535;28;20958;-75
2021/09/26 11:34:58;;;;;;;17.17;10.37;;;20.60;87.80;;;;;;5017216;28;20409;-77
2021/09/26 11:37:35;;;;;;;23.80;13.07;;;20.70;87.80;;;;;;5014436;28;20616;-75
2021/09/26 11:40:04;;;;;;;19.27;9.93;;;20.80;88.30;;;;;;5030101;28;20874;-77
2021/09/26 11:42:41;;;;;;;18.90;10.63;;;20.90;88.40;;;;;;5041067;28;20443;-76
2021/09/26 11:45:10;;;;;;;18.93;12.33;;;21.10;87.70;;;;;;5033524;28;20420;-75
2021/09/26 11:47:36;;;;;;;19.67;9.70;;;21.00;85.60;;;;;;5037232;28;20469;-75
2021/09/26 11:50:10;;;;;;;17.53;10.23;;;20.80;85.60;;;;;;5033846;28;20428;-76
2021/09/26 11:52:41;;;;;;;30.47;16.60;;;20.80;86.20;;;;;;5025361;28;20173;-75
2021/09/26 11:55:08;;;;;;;18.50;10.43;;;20.80;86.50;;;;;;5033651;28;20451;-77
2021/09/26 11:57:34;;;;;;;21.60;12.50;;;20.90;86.30;;;;;;5033538;28;20474;-76
2021/09/26 12:00:00;;;;;;;15.50;10.20;;;21.00;86.90;;;;;;5025680;28;20472;-76
2021/09/26 12:02:25;;;;;;;19.53;11.37;;;21.10;85.70;;;;;;5033605;28;20939;-76
2021/09/26 12:04:51;;;;;;;17.47;9.93;;;21.20;85.20;;;;;;5033102;28;20213;-75
2021/09/26 12:07:17;;;;;;;16.17;9.70;;;21.30;86.00;;;;;;5035248;28;20207;-76
2021/09/26 12:09:47;;;;;;;16.60;10.20;;;21.50;85.50;;;;;;5046563;28;20289;-74
2021/09/26 12:12:20;;;;;;;15.03;9.63;;;21.70;84.90;;;;;;5037539;28;20650;-76
2021/09/26 12:14:49;;;;;;;15.70;9.47;;;22.00;85.00;;;;;;5035553;28;20468;-75
2021/09/26 12:17:27;;;;;;;15.43;9.57;;;22.10;82.40;;;;;;5034240;28;20459;-75
2021/09/26 12:20:01;;;;;;;14.20;9.20;;;22.50;82.10;;;;;;5030582;28;20427;-76
2021/09/26 12:22:28;;;;;;;16.40;9.47;;;22.80;79.90;;;;;;5033729;28;20501;-75
2021/09/26 12:25:03;;;;;;;14.13;8.00;;;23.10;77.60;;;;;;5033406;28;20435;-76
2021/09/26 12:27:29;;;;;;;15.60;9.70;;;23.20;75.90;;;;;;5030415;28;20502;-73
2021/09/26 12:29:55;;;;;;;16.87;8.53;;;23.10;76.10;;;;;;5027214;28;20425;-76
2021/09/26 12:32:25;;;;;;;16.07;9.03;;;23.00;77.00;;;;;;5032044;28;20182;-75
2021/09/26 12:34:51;;;;;;;13.03;8.70;;;23.20;76.70;;;;;;5033088;28;20353;-73
2021/09/26 12:37:23;;;;;;;14.93;9.53;;;23.20;75.80;;;;;;5029328;28;20567;-78
2021/09/26 12:39:51;;;;;;;11.20;7.80;;;23.00;76.70;;;;;;5026649;28;20792;-73
2021/09/26 12:42:28;;;;;;;11.97;8.43;;;22.90;76.80;;;;;;5031572;28;20945;-72